Time;durP1;ratioP1;P1;durP2;ratioP2;P2;SDS_P1;SDS_P2;PMS_P1;PMS_P2;Temp;Humidity;BMP_temperature;BMP_pressure;BME280_temperature;BME280_humidity;BME280_pressure;Samples;Min_cycle;Max_cycle;Signal;HPM_P1;HPM_P2
2021/05/24 00:00:45;;;;;;;0.70;0.55;;;;;;;11.85;38.84;100779.22;7966687;28;20044;-69
2021/05/24 00:04:36;;;;;;;0.82;0.57;;;;;;;11.84;39.03;100780.16;7984282;28;20032;-68
2021/05/24 00:08:27;;;;;;;1.55;0.70;;;;;;;11.80;38.75;100779.56;7979980;28;20120;-68
2021/05/24 00:12:27;;;;;;;0.77;0.77;;;;;;;11.77;38.99;100763.16;7979040;28;20096;-69
2021/05/24 00:16:17;;;;;;;1.70;0.80;;;;;;;11.73;39.16;100759.06;7977611;28;20102;-68
2021/05/24 00:20:10;;;;;;;1.02;0.75;;;;;;;11.69;39.16;100766.31;7960777;28;20378;-68
2021/05/24 00:24:00;;;;;;;1.52;0.80;;;;;;;11.64;39.18;100757.94;7976669;28;20409;-69
2021/05/24 00:27:52;;;;;;;2.78;1.05;;;;;;;11.59;39.24;100747.75;7975212;28;20581;-67
2021/05/24 00:31:43;;;;;;;2.05;0.80;;;;;;;11.53;39.17;100744.66;7982090;28;20038;-68
2021/05/24 00:35:33;;;;;;;0.70;0.70;;;;;;;11.46;39.30;100749.53;7982965;28;20507;-68
2021/05/24 00:39:44;;;;;;;1.13;0.60;;;;;;;11.37;39.46;100736.19;7980293;28;20049;-68
2021/05/24 00:43:35;;;;;;;1.10;0.60;;;;;;;11.35;39.75;100730.22;7979380;28;20101;-68
2021/05/24 00:47:26;;;;;;;1.42;0.80;;;;;;;11.36;39.68;100726.63;7981500;28;20489;-68
2021/05/24 00:51:16;;;;;;;1.85;0.60;;;;;;;11.35;39.82;100725.81;7978645;28;20448;-68
2021/05/24 00:55:08;;;;;;;4.70;0.80;;;;;;;11.32;39.93;100715.47;7946372;28;20037;-67
2021/05/24 00:58:59;;;;;;;1.67;1.00;;;;;;;11.32;40.07;100706.75;7976293;28;20033;-67
2021/05/24 01:02:51;;;;;;;4.55;0.88;;;;;;;11.31;40.02;100692.78;7975587;28;20048;-67
2021/05/24 01:06:42;;;;;;;1.50;0.70;;;;;;;11.33;40.16;100696.13;7974771;28;20048;-68
2021/05/24 01:10:33;;;;;;;1.08;0.77;;;;;;;11.28;40.15;100677.19;7976067;28;20041;-68
2021/05/24 01:14:28;;;;;;;1.15;0.70;;;;;;;11.31;40.34;100681.41;7980821;28;20113;-68
2021/05/24 01:18:19;;;;;;;2.10;0.65;;;;;;;11.36;40.43;100676.63;7965822;28;20133;-68
2021/05/24 01:22:15;;;;;;;2.45;0.73;;;;;;;11.34;40.58;100676.78;7973579;28;20029;-68
2021/05/24 01:26:06;;;;;;;1.27;0.85;;;;;;;11.41;40.65;100669.28;7983222;28;20048;-68
2021/05/24 01:30:06;;;;;;;1.83;0.70;;;;;;;11.41;40.84;100669.28;7977984;28;20037;-68
2021/05/24 01:33:58;;;;;;;0.60;0.60;;;;;;;11.43;40.77;100662.13;7974812;28;20894;-69
2021/05/24 01:37:49;;;;;;;0.85;0.47;;;;;;;11.42;40.81;100657.81;7971586;28;20125;-69
2021/05/24 01:41:39;;;;;;;2.38;0.88;;;;;;;11.41;41.06;100656.97;7974218;28;20359;-68
2021/05/24 01:45:30;;;;;;;4.13;0.55;;;;;;;11.41;41.15;100651.69;7974660;28;20485;-68
2021/05/24 01:49:21;;;;;;;0.65;0.63;;;;;;;11.38;41.08;100657.19;7976233;28;20048;-69
2021/05/24 01:53:12;;;;;;;0.50;0.50;;;;;;;11.36;41.32;100651.19;7980703;28;20025;-69
2021/05/24 01:57:03;;;;;;;3.10;1.05;;;;;;;11.40;41.44;100651.84;7979766;28;20041;-68
2021/05/24 02:01:01;;;;;;;2.22;0.65;;;;;;;11.39;41.61;100650.16;7978420;28;20038;-68
2021/05/24 02:04:52;;;;;;;2.40;0.70;;;;;;;11.39;41.92;100639.63;7977210;28;20079;-68
2021/05/24 02:08:43;;;;;;;1.05;0.70;;;;;;;11.39;41.38;100627.31;7977427;28;20037;-67
2021/05/24 02:12:34;;;;;;;1.17;0.50;;;;;;;11.38;41.69;100624.78;7977148;28;20041;-68
2021/05/24 02:16:41;;;;;;;0.93;0.55;;;;;;;11.41;41.65;100629.81;7977448;28;20065;-68
2021/05/24 02:20:33;;;;;;;2.10;0.68;;;;;;;11.38;42.12;100628.25;7981521;28;20080;-66
2021/05/24 02:24:24;;;;;;;0.43;0.43;;;;;;;11.43;41.92;100639.28;7977133;28;20044;-66
2021/05/24 02:28:15;;;;;;;2.85;0.95;;;;;;;11.41;42.06;100635.91;7973532;28;20113;-66
2021/05/24 02:32:05;;;;;;;2.08;0.60;;;;;;;11.44;42.00;100626.97;7972559;28;20509;-67
2021/05/24 02:35:56;;;;;;;0.80;0.50;;;;;;;11.46;42.08;100625.91;7979797;28;20037;-67
2021/05/24 02:39:47;;;;;;;0.77;0.65;;;;;;;11.44;42.24;100617.28;7977810;28;20116;-66
2021/05/24 02:43:37;;;;;;;1.52;0.60;;;;;;;11.49;42.27;100620.41;7978350;28;20037;-67
2021/05/24 02:47:28;;;;;;;0.88;0.57;;;;;;;11.49;42.31;100609.88;7976926;28;20542;-67
2021/05/24 02:51:18;;;;;;;1.48;0.40;;;;;;;11.49;42.35;100594.09;7975090;28;20093;-67
2021/05/24 02:55:11;;;;;;;1.00;0.73;;;;;;;11.51;42.35;100602.75;7966099;28;20477;-67
2021/05/24 02:59:02;;;;;;;0.63;0.40;;;;;;;11.51;42.30;100596.63;7973441;28;20660;-66
2021/05/24 03:02:53;;;;;;;0.60;0.60;;;;;;;11.53;42.32;100597.34;7969292;28;20033;-67
2021/05/24 03:06:44;;;;;;;1.45;0.65;;;;;;;11.56;42.27;100611.09;7972606;28;20033;-67
2021/05/24 03:10:35;;;;;;;1.23;0.70;;;;;;;11.55;42.44;100600.72;7970330;28;20051;-66
2021/05/24 03:14:25;;;;;;;1.05;0.65;;;;;;;11.55;42.50;100590.19;7969232;28;20033;-66
2021/05/24 03:18:16;;;;;;;0.57;0.55;;;;;;;11.55;42.20;100583.13;7981645;28;20123;-66
2021/05/24 03:22:06;;;;;;;0.88;0.60;;;;;;;11.57;42.48;100583.03;7977177;28;20037;-66
2021/05/24 03:25:57;;;;;;;0.77;0.57;;;;;;;11.56;42.41;100576.09;7977083;28;20059;-67
2021/05/24 03:29:48;;;;;;;0.98;0.70;;;;;;;11.61;42.58;100571.34;7985372;28;20040;-67
2021/05/24 03:33:40;;;;;;;0.50;0.50;;;;;;;11.60;42.32;100574.94;7978768;28;20041;-66
2021/05/24 03:37:30;;;;;;;0.70;0.70;;;;;;;11.61;42.50;100571.34;7980775;28;20076;-67
2021/05/24 03:41:21;;;;;;;0.50;0.50;;;;;;;11.62;42.55;100573.03;7974299;28;20022;-67
2021/05/24 03:45:16;;;;;;;1.40;0.65;;;;;;;11.63;42.66;100560.72;7976540;28;20790;-66
2021/05/24 03:49:06;;;;;;;0.75;0.60;;;;;;;11.62;42.68;100567.75;7976971;28;20025;-67
2021/05/24 03:52:57;;;;;;;1.20;0.70;;;;;;;11.64;42.39;100568.50;7970149;28;20049;-66
2021/05/24 03:56:48;;;;;;;0.75;0.52;;;;;;;11.67;42.54;100565.63;7971507;28;20148;-67
2021/05/24 04:00:38;;;;;;;0.50;0.50;;;;;;;11.67;42.83;100570.88;7969835;28;20038;-67
2021/05/24 04:04:29;;;;;;;2.03;0.80;;;;;;;11.66;42.66;100568.34;7982597;28;20079;-67
2021/05/24 04:08:20;;;;;;;1.25;0.60;;;;;;;11.69;42.75;100574.22;7974174;28;20091;-66
2021/05/24 04:12:10;;;;;;;1.73;0.60;;;;;;;11.67;42.60;100568.25;7982290;28;20039;-67
2021/05/24 04:16:01;;;;;;;0.85;0.70;;;;;;;11.71;42.69;100560.97;7981798;28;20034;-66
2021/05/24 04:19:52;;;;;;;0.60;0.60;;;;;;;11.73;42.70;100561.69;7981165;28;20167;-66
2021/05/24 04:23:44;;;;;;;0.50;0.50;;;;;;;11.73;42.45;100559.88;7980434;28;20486;-67
2021/05/24 04:27:35;;;;;;;1.33;0.50;;;;;;;11.73;42.85;100548.53;7978426;28;20056;-67
2021/05/24 04:31:26;;;;;;;2.13;0.70;;;;;;;11.73;42.71;100538.03;7979380;28;20501;-67
2021/05/24 04:35:17;;;;;;;1.65;0.60;;;;;;;11.74;42.81;100542.31;7978175;28;20040;-67
2021/05/24 04:39:08;;;;;;;0.65;0.60;;;;;;;11.74;42.76;100537.03;7976855;28;20725;-67
2021/05/24 04:42:59;;;;;;;0.85;0.70;;;;;;;11.79;42.88;100542.81;7975759;28;20104;-67
2021/05/24 04:46:49;;;;;;;0.70;0.70;;;;;;;11.84;43.07;100551.19;7982327;28;20041;-67
2021/05/24 04:50:40;;;;;;;1.52;0.50;;;;;;;11.86;42.86;100546.63;7993925;28;20116;-67
2021/05/24 04:54:31;;;;;;;0.50;0.50;;;;;;;11.85;42.69;100537.09;7989003;28;20140;-67
2021/05/24 04:58:21;;;;;;;1.77;0.82;;;;;;;11.84;42.82;100544.13;7987938;28;20116;-67
2021/05/24 05:02:12;;;;;;;0.98;0.70;;;;;;;11.86;42.70;100536.09;7972078;28;20036;-67
2021/05/24 05:06:03;;;;;;;1.55;0.55;;;;;;;11.95;42.80;100535.41;7979831;28;20694;-67
2021/05/24 05:09:54;;;;;;;0.50;0.50;;;;;;;12.21;43.08;100530.75;7977447;28;20547;-67
2021/05/24 05:13:44;;;;;;;2.75;0.88;;;;;;;12.37;42.58;100526.81;7980110;28;20080;-68
2021/05/24 05:17:35;;;;;;;1.40;0.70;;;;;;;12.58;42.76;100524.28;7972847;28;20033;-67
2021/05/24 05:21:26;;;;;;;1.08;0.60;;;;;;;13.11;43.02;100516.47;7974852;28;20745;-67
2021/05/24 05:25:17;;;;;;;1.90;0.80;;;;;;;13.88;42.92;100525.81;7980627;28;20032;-67
2021/05/24 05:29:07;;;;;;;3.03;0.90;;;;;;;14.71;42.99;100521.13;7965787;28;20056;-67
2021/05/24 05:32:58;;;;;;;0.73;0.60;;;;;;;15.41;42.32;100520.09;7972323;28;20041;-68
2021/05/24 05:36:49;;;;;;;2.42;0.70;;;;;;;16.07;41.83;100509.47;7974673;28;20044;-68
2021/05/24 05:40:39;;;;;;;1.67;0.70;;;;;;;16.75;41.33;100504.66;7970292;28;20035;-68
2021/05/24 05:44:30;;;;;;;1.02;0.73;;;;;;;17.36;40.53;100494.97;7976760;28;20029;-68
2021/05/24 05:48:21;;;;;;;0.70;0.70;;;;;;;17.98;40.14;100501.91;7976199;28;20756;-68
2021/05/24 05:52:11;;;;;;;1.35;0.77;;;;;;;18.47;39.64;100498.66;7971265;28;20033;-68
2021/05/24 05:56:02;;;;;;;0.85;0.77;;;;;;;18.67;38.79;100500.88;7970075;28;20039;-68
2021/05/24 05:59:54;;;;;;;1.25;0.70;;;;;;;18.98;38.81;100501.09;7971613;28;20025;-68
2021/05/24 06:03:45;;;;;;;1.30;0.60;;;;;;;19.50;38.22;100503.47;7969697;28;20045;-68
2021/05/24 06:07:35;;;;;;;0.77;0.77;;;;;;;20.02;37.88;100498.56;7973547;28;20029;-68
2021/05/24 06:11:27;;;;;;;0.75;0.70;;;;;;;20.65;37.53;100491.31;7965840;28;20037;-67
2021/05/24 06:15:18;;;;;;;1.85;0.70;;;;;;;21.30;36.96;100477.50;7968256;28;20537;-67
2021/05/24 06:19:09;;;;;;;6.13;0.80;;;;;;;21.96;36.42;100481.22;7973628;28;20038;-68
2021/05/24 06:22:59;;;;;;;2.25;1.05;;;;;;;22.58;35.77;100484.28;7969974;28;20044;-68
2021/05/24 06:26:50;;;;;;;3.15;0.85;;;;;;;23.16;35.03;100485.16;7966588;28;20033;-68
2021/05/24 06:30:41;;;;;;;1.15;0.98;;;;;;;23.68;34.57;100482.88;7966108;28;20061;-68
2021/05/24 06:34:32;;;;;;;0.93;0.70;;;;;;;24.13;33.91;100465.41;7975967;28;20029;-67
2021/05/24 06:38:23;;;;;;;1.00;0.68;;;;;;;24.43;32.82;100446.34;7968279;28;20645;-68
2021/05/24 06:42:13;;;;;;;1.30;0.82;;;;;;;24.74;32.71;100442.09;7975485;28;20033;-68
2021/05/24 06:46:04;;;;;;;0.70;0.70;;;;;;;25.31;32.42;100439.88;7970705;28;20098;-68
2021/05/24 06:49:55;;;;;;;2.65;0.60;;;;;;;25.89;31.57;100435.47;7969343;28;20029;-68
2021/05/24 06:53:45;;;;;;;1.55;0.77;;;;;;;26.43;31.02;100432.34;7973114;28;20034;-68
2021/05/24 06:57:36;;;;;;;3.28;0.80;;;;;;;26.76;30.77;100437.56;7962812;28;20040;-67
2021/05/24 07:01:27;;;;;;;1.40;0.70;;;;;;;26.82;30.42;100437.50;7970601;28;20036;-68
2021/05/24 07:05:19;;;;;;;5.15;1.33;;;;;;;26.80;29.61;100425.31;7968141;28;20036;-68
2021/05/24 07:09:10;;;;;;;1.73;0.98;;;;;;;26.52;29.78;100429.16;7969416;28;20033;-69
2021/05/24 07:13:01;;;;;;;2.30;0.95;;;;;;;26.11;29.64;100418.81;7971148;28;20098;-70
2021/05/24 07:16:53;;;;;;;1.00;0.70;;;;;;;25.53;29.83;100419.81;7969403;28;20037;-68
2021/05/24 07:20:44;;;;;;;2.63;0.80;;;;;;;25.18;29.65;100420.03;7972637;28;20033;-69
2021/05/24 07:24:35;;;;;;;1.35;1.05;;;;;;;24.84;29.58;100422.06;7966760;28;20033;-68
2021/05/24 07:28:25;;;;;;;0.93;0.70;;;;;;;24.06;29.82;100421.63;7925017;23;20072;-68
2021/05/24 07:32:17;;;;;;;1.70;0.80;;;;;;;23.24;30.13;100412.66;7925994;28;20519;-68
2021/05/24 07:36:08;;;;;;;1.33;0.88;;;;;;;22.48;30.49;100411.53;7900161;28;20103;-69
2021/05/24 07:39:58;;;;;;;2.25;0.90;;;;;;;21.80;30.71;100419.88;7889239;28;20038;-67
2021/05/24 07:43:49;;;;;;;1.02;0.80;;;;;;;21.13;31.17;100401.19;7932571;28;20538;-69
2021/05/24 07:47:41;;;;;;;1.35;0.65;;;;;;;20.65;31.35;100403.25;7918809;28;20052;-69
2021/05/24 07:51:32;;;;;;;3.15;0.85;;;;;;;20.16;31.93;100393.88;7932327;28;20876;-69
2021/05/24 07:55:23;;;;;;;2.13;0.90;;;;;;;19.82;31.96;100405.66;7932276;28;20037;-68
2021/05/24 07:59:14;;;;;;;1.33;0.80;;;;;;;19.49;32.08;100403.25;7929898;28;20042;-69
2021/05/24 08:03:04;;;;;;;3.17;1.33;;;;;;;19.16;32.37;100405.13;7932350;28;20041;-68
2021/05/24 08:06:56;;;;;;;1.98;0.73;;;;;;;18.89;32.84;100411.63;7933391;28;20052;-68
2021/05/24 08:10:46;;;;;;;2.60;0.90;;;;;;;18.69;32.83;100412.91;7922085;28;20113;-68
2021/05/24 08:14:37;;;;;;;1.00;0.80;;;;;;;18.50;33.25;100411.41;7931981;28;20032;-69
2021/05/24 08:18:28;;;;;;;1.40;0.73;;;;;;;18.32;33.12;100400.03;7931505;28;20044;-68
2021/05/24 08:22:19;;;;;;;0.82;0.68;;;;;;;18.29;33.77;100408.34;7931877;28;20030;-68
2021/05/24 08:26:10;;;;;;;2.00;0.98;;;;;;;18.24;33.73;100411.47;7930786;28;20037;-69
2021/05/24 08:30:03;;;;;;;6.22;0.73;;;;;;;18.19;34.27;100411.13;7929423;28;20030;-68
2021/05/24 08:33:54;;;;;;;2.10;0.82;;;;;;;18.17;34.30;100399.00;7931062;28;20588;-68
2021/05/24 08:37:44;;;;;;;2.25;0.88;;;;;;;18.16;33.98;100402.63;7920721;28;20041;-67
2021/05/24 08:41:35;;;;;;;1.10;0.60;;;;;;;18.12;34.13;100390.66;7929558;28;20028;-67
2021/05/24 08:45:30;;;;;;;4.53;0.52;;;;;;;18.12;34.20;100401.28;7932091;28;20096;-68
2021/05/24 08:49:30;;;;;;;0.75;0.70;;;;;;;18.09;34.02;100389.16;7930492;28;20041;-67
2021/05/24 08:53:20;;;;;;;1.48;0.63;;;;;;;18.06;34.38;100394.81;7915508;28;20034;-68
2021/05/24 08:57:11;;;;;;;1.25;0.80;;;;;;;18.00;34.02;100390.97;7917858;28;20485;-68
2021/05/24 09:01:04;;;;;;;1.52;0.80;;;;;;;17.97;34.49;100385.16;7919700;28;20038;-68
2021/05/24 09:05:02;;;;;;;5.55;1.10;;;;;;;17.98;34.16;100387.63;7930653;28;20038;-68
2021/05/24 09:08:58;;;;;;;2.25;1.00;;;;;;;17.96;34.53;100381.66;7928475;28;20057;-68
2021/05/24 09:12:50;;;;;;;3.03;0.80;;;;;;;17.96;34.56;100383.47;7925186;28;20046;-69
2021/05/24 09:16:41;;;;;;;1.15;0.60;;;;;;;17.91;34.47;100381.28;7905056;28;20702;-69
2021/05/24 09:20:34;;;;;;;4.10;0.80;;;;;;;17.89;34.45;100374.50;7931459;28;20104;-69
2021/05/24 09:24:34;;;;;;;9.55;1.00;;;;;;;17.83;34.23;100380.44;7929588;28;20038;-69
2021/05/24 09:28:36;;;;;;;0.65;0.65;;;;;;;17.78;34.11;100374.75;7890492;28;20030;-69
2021/05/24 09:32:29;;;;;;;1.35;0.65;;;;;;;17.74;34.13;100378.72;7909761;28;20038;-69
2021/05/24 09:36:21;;;;;;;1.80;0.90;;;;;;;17.66;34.27;100368.88;7906839;28;20033;-67
2021/05/24 09:40:21;;;;;;;2.03;0.77;;;;;;;17.55;34.17;100366.50;7929866;28;20049;-69
2021/05/24 09:44:23;;;;;;;4.80;0.85;;;;;;;17.53;34.34;100369.31;7911371;28;20033;-68
2021/05/24 09:48:13;;;;;;;4.65;0.95;;;;;;;17.51;34.22;100359.84;7905780;28;20034;-68
2021/05/24 09:52:05;;;;;;;1.45;0.80;;;;;;;17.46;34.37;100364.78;7928294;28;20084;-69
2021/05/24 09:56:10;;;;;;;0.75;0.70;;;;;;;17.40;34.21;100355.63;7927994;28;20037;-69
2021/05/24 10:00:14;;;;;;;2.42;0.75;;;;;;;17.34;34.11;100355.44;7927422;28;20041;-69
2021/05/24 10:04:06;;;;;;;6.15;0.80;;;;;;;17.30;34.43;100348.78;7928866;28;20620;-68
2021/05/24 10:07:57;;;;;;;2.13;0.75;;;;;;;17.26;34.54;100348.25;7928269;28;20030;-68
2021/05/24 10:11:50;;;;;;;1.33;0.70;;;;;;;17.24;34.57;100336.94;7928281;28;20034;-69
2021/05/24 10:15:43;;;;;;;0.52;0.52;;;;;;;17.24;34.66;100344.91;7929299;28;20041;-68
2021/05/24 10:19:34;;;;;;;1.45;1.00;;;;;;;17.24;34.75;100331.63;7928642;28;20565;-68
2021/05/24 10:23:27;;;;;;;2.65;0.70;;;;;;;17.27;35.04;100325.19;7907833;28;20040;-69
2021/05/24 10:27:18;;;;;;;3.17;0.60;;;;;;;17.34;35.12;100327.06;7906302;28;20049;-68
2021/05/24 10:31:18;;;;;;;1.17;0.90;;;;;;;17.38;35.31;100320.44;7900623;28;20088;-68
2021/05/24 10:35:34;;;;;;;4.28;0.70;;;;;;;17.40;35.22;100330.91;7918478;28;20079;-68
2021/05/24 10:39:25;;;;;;;1.17;0.90;;;;;;;17.42;35.44;100328.91;7929839;28;20037;-67
2021/05/24 10:43:18;;;;;;;1.17;0.80;;;;;;;17.42;35.54;100331.56;7919376;28;20044;-70
2021/05/24 10:47:24;;;;;;;4.07;0.80;;;;;;;17.39;35.52;100327.44;7907212;28;21000;-67
2021/05/24 10:51:14;;;;;;;2.78;0.80;;;;;;;17.34;35.63;100323.56;7907562;28;20042;-69
2021/05/24 10:55:31;;;;;;;3.47;0.98;;;;;;;17.24;35.59;100326.31;7918101;28;20038;-69
2021/05/24 10:59:47;;;;;;;1.73;0.85;;;;;;;17.18;35.79;100347.38;7926199;28;20044;-69
2021/05/24 11:03:43;;;;;;;0.90;0.80;;;;;;;17.08;35.81;100343.00;7906627;28;20259;-69
2021/05/24 11:07:46;;;;;;;0.90;0.60;;;;;;;16.94;36.12;100345.41;7927981;28;21113;-69
2021/05/24 11:11:39;;;;;;;1.52;0.68;;;;;;;16.89;36.26;100363.56;7926854;28;20078;-69
2021/05/24 11:15:31;;;;;;;1.25;0.52;;;;;;;16.86;36.82;100369.19;7931018;28;20052;-69
2021/05/24 11:19:26;;;;;;;0.95;0.80;;;;;;;16.82;36.98;100375.78;7927000;28;20116;-67
2021/05/24 11:23:43;;;;;;;1.60;0.70;;;;;;;16.82;37.38;100373.97;7925842;28;20064;-68
2021/05/24 11:27:34;;;;;;;0.77;0.60;;;;;;;16.80;37.58;100375.09;7914259;28;20121;-68
2021/05/24 11:31:52;;;;;;;4.22;0.60;;;;;;;16.73;37.69;100376.69;7916080;28;20790;-69
2021/05/24 11:35:51;;;;;;;1.98;0.70;;;;;;;16.69;37.96;100373.53;7929910;28;20080;-70
2021/05/24 11:39:56;;;;;;;0.50;0.50;;;;;;;16.66;38.19;100379.09;7936819;28;20038;-68
2021/05/24 11:43:52;;;;;;;0.77;0.60;;;;;;;16.56;38.33;100373.91;7938355;28;20033;-68
2021/05/24 11:47:43;;;;;;;2.35;0.70;;;;;;;16.59;38.38;100380.72;7907473;28;20054;-68
2021/05/24 11:51:35;;;;;;;1.52;0.60;;;;;;;16.54;38.65;100388.28;7934446;28;20088;-67
2021/05/24 11:55:26;;;;;;;0.45;0.43;;;;;;;16.46;38.77;100386.38;7934541;28;20032;-68
2021/05/24 11:59:23;;;;;;;0.45;0.45;;;;;;;16.37;38.88;100376.69;7922562;28;20038;-68
2021/05/24 12:03:13;;;;;;;0.35;0.35;;;;;;;16.29;38.94;100392.50;7937529;28;20054;-68
2021/05/24 12:07:11;;;;;;;0.38;0.38;;;;;;;16.17;38.86;100388.41;7937657;28;20053;-68
2021/05/24 12:11:02;;;;;;;1.00;0.52;;;;;;;16.10;39.23;100382.00;7927838;28;20085;-67
2021/05/24 12:14:55;;;;;;;0.40;0.40;;;;;;;16.06;39.35;100380.63;7935255;28;20038;-68
2021/05/24 12:18:58;;;;;;;0.38;0.38;;;;;;;16.06;39.60;100368.22;7935906;28;20061;-68
2021/05/24 12:22:53;;;;;;;0.50;0.40;;;;;;;16.06;39.63;100356.78;7944157;28;21282;-69
2021/05/24 12:26:50;;;;;;;0.50;0.50;;;;;;;16.09;39.85;100353.81;7931229;28;20061;-70
2021/05/24 12:30:43;;;;;;;0.50;0.43;;;;;;;16.10;39.83;100356.34;7933670;28;20667;-69
2021/05/24 12:34:47;;;;;;;0.40;0.40;;;;;;;16.16;40.09;100370.84;7940753;28;20749;-70
2021/05/24 12:38:45;;;;;;;0.47;0.47;;;;;;;16.20;40.33;100376.69;7907450;28;20112;-70
2021/05/24 12:42:41;;;;;;;0.43;0.43;;;;;;;16.20;40.16;100374.88;7904255;28;20041;-70
2021/05/24 12:46:38;;;;;;;0.40;0.40;;;;;;;16.18;40.31;100372.34;7859075;28;20047;-70
2021/05/24 12:50:30;;;;;;;0.40;0.40;;;;;;;16.21;40.52;100367.72;7881289;28;20033;-69
2021/05/24 12:54:25;;;;;;;0.38;0.38;;;;;;;16.24;40.49;100349.72;7889244;28;20050;-68
2021/05/24 12:58:28;;;;;;;0.40;0.40;;;;;;;16.37;40.65;100368.72;7891873;28;20034;-71
2021/05/24 13:02:23;;;;;;;0.40;0.40;;;;;;;16.38;40.51;100346.53;7856756;28;20076;-70
2021/05/24 13:06:16;;;;;;;0.38;0.38;;;;;;;16.43;40.71;100362.00;7876714;28;20030;-69
2021/05/24 13:10:10;;;;;;;1.35;0.70;;;;;;;16.47;40.74;100371.31;7863050;28;20042;-69
2021/05/24 13:14:03;;;;;;;0.57;0.50;;;;;;;16.44;40.59;100369.81;7895017;28;20050;-68
2021/05/24 13:30:07;;;;;;;0.57;0.40;;;;;;;16.03;40.75;100379.13;7851072;28;20046;-67
2021/05/24 13:33:59;;;;;;;0.50;0.50;;;;;;;16.00;40.65;100389.16;7863510;28;20461;-68
2021/05/24 13:37:53;;;;;;;1.05;0.70;;;;;;;15.96;40.81;100401.03;7856881;28;20043;-70
2021/05/24 13:41:49;;;;;;;0.50;0.50;;;;;;;15.91;40.89;100400.66;7857041;28;20026;-69
2021/05/24 13:45:41;;;;;;;0.55;0.55;;;;;;;15.83;40.83;100398.72;7894490;28;20058;-70
2021/05/24 13:49:33;;;;;;;0.50;0.50;;;;;;;15.75;40.72;100400.47;7889356;28;20042;-69
2021/05/24 13:53:26;;;;;;;0.60;0.60;;;;;;;15.64;40.62;100410.25;7859195;28;20050;-68
2021/05/24 13:57:17;;;;;;;0.50;0.50;;;;;;;15.59;40.47;100409.84;7901143;28;20097;-69
2021/05/24 14:01:12;;;;;;;1.33;0.63;;;;;;;15.53;40.63;100399.00;7862791;28;20042;-70
2021/05/24 14:05:04;;;;;;;0.57;0.57;;;;;;;15.48;40.92;100388.84;7863156;28;20454;-69
2021/05/24 14:08:55;;;;;;;2.22;0.65;;;;;;;15.47;41.05;100388.97;7878023;28;20042;-69
2021/05/24 14:12:52;;;;;;;0.50;0.50;;;;;;;15.48;41.16;100377.41;7846354;28;20038;-68
2021/05/24 14:16:45;;;;;;;0.60;0.57;;;;;;;15.61;40.96;100377.94;7884512;28;20057;-67
2021/05/24 14:20:36;;;;;;;0.47;0.47;;;;;;;15.62;41.27;100375.13;7848832;28;20073;-69
2021/05/24 14:24:27;;;;;;;1.80;0.60;;;;;;;15.71;41.14;100374.25;7881858;28;20403;-70
2021/05/24 14:28:24;;;;;;;0.50;0.50;;;;;;;15.79;40.98;100367.41;7860968;28;20038;-69
2021/05/24 14:32:15;;;;;;;0.73;0.73;;;;;;;15.85;40.96;100365.00;7863626;28;20416;-69
2021/05/24 14:36:07;;;;;;;1.65;0.82;;;;;;;15.84;41.12;100352.72;7850838;28;20514;-69
2021/05/24 14:39:58;;;;;;;1.00;0.60;;;;;;;15.90;41.04;100362.75;7876737;28;20507;-69
2021/05/24 14:43:49;;;;;;;2.50;0.50;;;;;;;15.98;41.24;100348.75;7887099;28;20034;-69
2021/05/24 14:47:39;;;;;;;1.23;0.50;;;;;;;16.05;41.09;100342.69;7891099;28;20668;-69
2021/05/24 14:51:33;;;;;;;0.40;0.40;;;;;;;16.16;41.55;100345.16;7893043;28;20049;-68
2021/05/24 14:55:23;;;;;;;0.73;0.50;;;;;;;16.24;41.09;100338.28;7871354;28;20046;-69
2021/05/24 14:59:15;;;;;;;0.82;0.60;;;;;;;16.29;41.29;100336.84;7889142;28;20023;-69
2021/05/24 15:03:12;;;;;;;0.50;0.50;;;;;;;16.34;41.17;100336.38;7872212;28;20042;-68
2021/05/24 15:07:03;;;;;;;0.50;0.50;;;;;;;16.35;41.13;100333.59;7880479;28;20049;-69
2021/05/24 15:10:57;;;;;;;0.40;0.40;;;;;;;16.39;41.25;100327.00;7867456;28;20061;-69
2021/05/24 15:14:48;;;;;;;0.40;0.40;;;;;;;16.45;41.17;100336.19;7892500;28;20407;-70
2021/05/24 15:18:39;;;;;;;0.77;0.60;;;;;;;16.49;41.05;100329.59;7893384;28;20038;-70
2021/05/24 15:22:30;;;;;;;0.40;0.40;;;;;;;16.56;40.79;100333.28;7895909;28;20077;-70
2021/05/24 15:26:21;;;;;;;0.45;0.45;;;;;;;16.59;40.92;100319.72;7878564;28;20041;-70
2021/05/24 15:30:17;;;;;;;0.77;0.40;;;;;;;16.61;40.68;100308.00;7875555;28;20652;-67
2021/05/24 15:34:07;;;;;;;0.40;0.40;;;;;;;16.64;40.73;100318.28;7868911;28;20502;-67
2021/05/24 15:37:58;;;;;;;0.60;0.60;;;;;;;16.69;40.67;100309.88;7859258;28;20035;-69
2021/05/24 15:41:49;;;;;;;0.50;0.50;;;;;;;16.70;40.49;100311.50;7862404;28;20046;-68
2021/05/24 15:45:41;;;;;;;0.60;0.60;;;;;;;16.71;40.41;100302.56;7881564;28;20611;-69
2021/05/24 15:49:33;;;;;;;0.47;0.47;;;;;;;16.76;40.15;100304.75;7885137;28;20034;-67
2021/05/24 15:53:24;;;;;;;1.02;0.45;;;;;;;16.75;40.06;100303.09;7890179;28;20048;-69
2021/05/24 15:57:15;;;;;;;4.88;1.10;;;;;;;16.76;40.15;100304.75;7891681;28;20753;-69
2021/05/24 16:01:07;;;;;;;1.13;0.50;;;;;;;16.76;39.77;100291.50;7862866;28;20038;-67
2021/05/24 16:04:57;;;;;;;1.60;0.52;;;;;;;16.77;39.86;100290.53;7879527;28;20114;-68
2021/05/24 16:08:49;;;;;;;1.08;0.60;;;;;;;16.80;40.19;100290.22;7894255;28;20070;-69
2021/05/24 16:12:44;;;;;;;0.60;0.60;;;;;;;16.83;39.99;100284.59;7896909;28;20127;-70
2021/05/24 16:16:44;;;;;;;0.65;0.50;;;;;;;16.86;39.82;100292.25;7895929;28;20096;-69
2021/05/24 16:20:37;;;;;;;0.52;0.50;;;;;;;16.94;39.79;100279.06;7889283;28;20038;-69
2021/05/24 16:28:24;;;;;;;0.77;0.70;;;;;;;17.00;39.79;100271.31;7874189;28;20042;-68
2021/05/24 16:32:18;;;;;;;0.98;0.65;;;;;;;17.03;39.28;100270.16;7872623;28;20046;-69
2021/05/24 16:36:09;;;;;;;1.20;0.90;;;;;;;17.05;39.50;100266.38;7884397;28;20394;-68
2021/05/24 16:40:08;;;;;;;0.65;0.60;;;;;;;17.03;39.49;100259.56;7901122;28;20080;-68
2021/05/24 16:44:02;;;;;;;0.60;0.60;;;;;;;17.08;39.36;100267.84;7879126;28;20081;-68
2021/05/24 16:48:00;;;;;;;1.13;0.93;;;;;;;17.01;39.14;100254.41;7893078;28;20043;-69
2021/05/24 16:51:50;;;;;;;1.80;0.60;;;;;;;16.96;39.14;100258.50;7871887;28;20042;-69
2021/05/24 16:55:41;;;;;;;0.40;0.40;;;;;;;16.90;39.09;100256.47;7886872;28;20040;-68
2021/05/24 16:59:37;;;;;;;0.50;0.50;;;;;;;16.83;39.00;100250.94;7910933;28;20023;-69
2021/05/24 17:03:29;;;;;;;1.08;0.65;;;;;;;16.83;38.88;100255.41;7871732;28;20511;-70
2021/05/24 17:07:19;;;;;;;5.75;1.10;;;;;;;16.75;38.67;100256.19;7905056;28;20152;-69
2021/05/24 17:11:11;;;;;;;0.50;0.50;;;;;;;16.69;38.71;100248.88;7907175;28;20106;-69
2021/05/24 17:15:06;;;;;;;1.75;1.05;;;;;;;16.61;38.46;100241.69;7882627;28;20050;-70
2021/05/24 17:18:58;;;;;;;0.75;0.60;;;;;;;16.50;38.64;100238.44;7891590;28;20042;-68
2021/05/24 17:22:49;;;;;;;0.82;0.60;;;;;;;16.41;38.50;100236.75;7900778;22;20045;-68
2021/05/24 17:26:41;;;;;;;0.60;0.60;;;;;;;16.38;38.60;100239.69;7899500;28;20033;-70
2021/05/24 17:30:38;;;;;;;1.88;0.77;;;;;;;16.33;38.38;100241.94;7876352;28;20551;-69
2021/05/24 17:34:37;;;;;;;1.20;0.80;;;;;;;16.28;38.63;100244.25;7899839;28;20027;-69
2021/05/24 17:38:27;;;;;;;0.85;0.63;;;;;;;16.20;38.58;100241.53;7897046;28;20039;-69
2021/05/24 17:42:18;;;;;;;0.60;0.60;;;;;;;16.15;38.48;100239.34;7899259;28;20028;-69
2021/05/24 17:46:14;;;;;;;3.25;1.50;;;;;;;16.12;38.47;100243.09;7901315;28;20065;-70
2021/05/24 17:50:14;;;;;;;1.30;0.60;;;;;;;16.06;38.54;100251.66;7905839;28;20088;-70
2021/05/24 17:54:05;;;;;;;0.73;0.60;;;;;;;16.01;38.64;100245.97;7865688;28;20732;-70
2021/05/24 17:57:57;;;;;;;2.42;0.70;;;;;;;16.00;38.80;100252.22;7895664;28;20108;-68
2021/05/24 18:01:48;;;;;;;0.50;0.50;;;;;;;15.98;38.89;100245.44;7900494;28;20045;-69
2021/05/24 18:05:39;;;;;;;0.55;0.55;;;;;;;15.92;38.80;100238.91;7894218;28;20290;-72
2021/05/24 18:09:30;;;;;;;0.60;0.60;;;;;;;15.89;38.68;100241.88;7894650;28;20030;-75
2021/05/24 18:13:20;;;;;;;0.70;0.70;;;;;;;15.87;38.62;100235.06;7898842;28;20918;-73
2021/05/24 18:17:11;;;;;;;0.50;0.50;;;;;;;15.83;38.66;100241.66;7891380;28;20053;-73